sensor_id;sensor_type;location;lat;lon;timestamp;P1;durP1;ratioP1;P2;durP2;ratioP2
17631;SDS011;8934;51.194;17.150;2022-12-18T00:02:04;71.10;;;29.33;;
17631;SDS011;8934;51.194;17.150;2022-12-18T00:04:52;42.38;;;17.08;;
17631;SDS011;8934;51.194;17.150;2022-12-18T00:07:40;40.13;;;16.92;;
17631;SDS011;8934;51.194;17.150;2022-12-18T00:10:27;55.20;;;22.05;;
17631;SDS011;8934;51.194;17.150;2022-12-18T00:13:16;50.67;;;17.88;;
17631;SDS011;8934;51.194;17.150;2022-12-18T00:16:05;56.88;;;23.83;;
17631;SDS011;8934;51.194;17.150;2022-12-18T00:18:54;52.42;;;20.85;;
17631;SDS011;8934;51.194;17.150;2022-12-18T00:21:47;62.30;;;22.15;;
17631;SDS011;8934;51.194;17.150;2022-12-18T00:24:34;53.50;;;19.50;;
17631;SDS011;8934;51.194;17.150;2022-12-18T00:27:22;52.97;;;19.42;;
17631;SDS011;8934;51.194;17.150;2022-12-18T00:30:11;55.33;;;19.60;;
17631;SDS011;8934;51.194;17.150;2022-12-18T00:32:59;60.72;;;20.48;;
17631;SDS011;8934;51.194;17.150;2022-12-18T00:35:46;48.33;;;19.73;;
17631;SDS011;8934;51.194;17.150;2022-12-18T00:38:34;54.03;;;18.30;;
17631;SDS011;8934;51.194;17.150;2022-12-18T00:41:22;52.13;;;19.13;;
17631;SDS011;8934;51.194;17.150;2022-12-18T00:44:27;44.72;;;17.52;;
17631;SDS011;8934;51.194;17.150;2022-12-18T00:47:16;50.90;;;17.13;;
17631;SDS011;8934;51.194;17.150;2022-12-18T00:50:04;59.00;;;19.63;;
17631;SDS011;8934;51.194;17.150;2022-12-18T00:52:53;56.75;;;20.42;;
17631;SDS011;8934;51.194;17.150;2022-12-18T00:55:40;66.35;;;19.73;;
17631;SDS011;8934;51.194;17.150;2022-12-18T00:58:28;54.15;;;17.50;;
17631;SDS011;8934;51.194;17.150;2022-12-18T01:01:16;47.30;;;16.50;;
17631;SDS011;8934;51.194;17.150;2022-12-18T01:04:06;61.67;;;17.45;;
17631;SDS011;8934;51.194;17.150;2022-12-18T01:06:55;53.53;;;19.27;;
17631;SDS011;8934;51.194;17.150;2022-12-18T01:09:43;49.13;;;16.20;;
17631;SDS011;8934;51.194;17.150;2022-12-18T01:12:31;48.33;;;15.75;;
17631;SDS011;8934;51.194;17.150;2022-12-18T01:15:18;56.92;;;19.15;;
17631;SDS011;8934;51.194;17.150;2022-12-18T01:18:07;52.25;;;17.73;;
17631;SDS011;8934;51.194;17.150;2022-12-18T01:20:56;61.10;;;19.25;;
17631;SDS011;8934;51.194;17.150;2022-12-18T01:23:43;49.90;;;18.30;;
17631;SDS011;8934;51.194;17.150;2022-12-18T01:26:31;53.60;;;18.73;;
17631;SDS011;8934;51.194;17.150;2022-12-18T01:29:18;53.88;;;18.25;;
17631;SDS011;8934;51.194;17.150;2022-12-18T01:32:06;42.88;;;17.05;;
17631;SDS011;8934;51.194;17.150;2022-12-18T01:34:54;56.63;;;18.80;;
17631;SDS011;8934;51.194;17.150;2022-12-18T01:37:42;48.65;;;17.35;;
17631;SDS011;8934;51.194;17.150;2022-12-18T01:40:30;57.22;;;19.17;;
17631;SDS011;8934;51.194;17.150;2022-12-18T01:43:17;55.53;;;18.63;;
17631;SDS011;8934;51.194;17.150;2022-12-18T01:46:05;53.63;;;18.77;;
17631;SDS011;8934;51.194;17.150;2022-12-18T01:48:53;53.67;;;20.52;;
17631;SDS011;8934;51.194;17.150;2022-12-18T01:51:44;50.25;;;18.00;;
17631;SDS011;8934;51.194;17.150;2022-12-18T01:54:33;51.42;;;17.58;;
17631;SDS011;8934;51.194;17.150;2022-12-18T01:57:21;63.63;;;19.73;;
17631;SDS011;8934;51.194;17.150;2022-12-18T02:00:11;57.55;;;19.30;;
17631;SDS011;8934;51.194;17.150;2022-12-18T02:03:01;51.92;;;17.65;;
17631;SDS011;8934;51.194;17.150;2022-12-18T02:05:50;47.40;;;17.73;;
17631;SDS011;8934;51.194;17.150;2022-12-18T02:11:58;60.47;;;19.25;;
17631;SDS011;8934;51.194;17.150;2022-12-18T02:14:51;70.47;;;21.48;;
17631;SDS011;8934;51.194;17.150;2022-12-18T02:17:47;49.80;;;19.42;;
17631;SDS011;8934;51.194;17.150;2022-12-18T02:20:40;58.35;;;22.73;;
17631;SDS011;8934;51.194;17.150;2022-12-18T02:23:37;59.85;;;20.58;;
17631;SDS011;8934;51.194;17.150;2022-12-18T02:26:36;70.85;;;23.63;;
17631;SDS011;8934;51.194;17.150;2022-12-18T02:29:29;68.57;;;22.02;;
17631;SDS011;8934;51.194;17.150;2022-12-18T02:32:20;66.35;;;22.27;;
17631;SDS011;8934;51.194;17.150;2022-12-18T02:35:11;61.95;;;21.40;;
17631;SDS011;8934;51.194;17.150;2022-12-18T02:38:02;63.85;;;22.67;;
17631;SDS011;8934;51.194;17.150;2022-12-18T02:40:53;51.38;;;19.90;;
17631;SDS011;8934;51.194;17.150;2022-12-18T02:43:46;62.35;;;21.88;;
17631;SDS011;8934;51.194;17.150;2022-12-18T02:46:38;65.75;;;20.98;;
17631;SDS011;8934;51.194;17.150;2022-12-18T02:49:34;67.03;;;24.30;;
17631;SDS011;8934;51.194;17.150;2022-12-18T02:52:34;77.95;;;29.75;;
17631;SDS011;8934;51.194;17.150;2022-12-18T02:55:29;53.47;;;22.42;;
17631;SDS011;8934;51.194;17.150;2022-12-18T02:58:33;63.97;;;20.77;;
17631;SDS011;8934;51.194;17.150;2022-12-18T03:01:38;64.13;;;21.97;;
17631;SDS011;8934;51.194;17.150;2022-12-18T03:04:35;45.78;;;19.88;;
17631;SDS011;8934;51.194;17.150;2022-12-18T03:07:27;55.63;;;18.90;;
17631;SDS011;8934;51.194;17.150;2022-12-18T03:10:27;50.65;;;20.17;;
17631;SDS011;8934;51.194;17.150;2022-12-18T03:13:20;45.08;;;17.10;;
17631;SDS011;8934;51.194;17.150;2022-12-18T03:16:17;46.58;;;18.45;;
17631;SDS011;8934;51.194;17.150;2022-12-18T03:19:12;55.47;;;18.67;;
17631;SDS011;8934;51.194;17.150;2022-12-18T03:22:03;45.85;;;17.13;;
17631;SDS011;8934;51.194;17.150;2022-12-18T03:25:03;44.40;;;17.05;;
17631;SDS011;8934;51.194;17.150;2022-12-18T03:27:56;46.38;;;15.93;;
17631;SDS011;8934;51.194;17.150;2022-12-18T03:30:47;42.15;;;16.08;;
17631;SDS011;8934;51.194;17.150;2022-12-18T03:33:38;53.58;;;17.83;;
17631;SDS011;8934;51.194;17.150;2022-12-18T03:36:30;44.03;;;16.85;;
17631;SDS011;8934;51.194;17.150;2022-12-18T03:39:19;50.55;;;17.58;;
17631;SDS011;8934;51.194;17.150;2022-12-18T03:42:15;42.25;;;15.48;;
17631;SDS011;8934;51.194;17.150;2022-12-18T03:45:09;38.30;;;16.20;;
17631;SDS011;8934;51.194;17.150;2022-12-18T03:48:02;41.97;;;15.55;;
17631;SDS011;8934;51.194;17.150;2022-12-18T03:50:59;37.00;;;15.85;;
17631;SDS011;8934;51.194;17.150;2022-12-18T03:53:53;40.35;;;14.38;;
17631;SDS011;8934;51.194;17.150;2022-12-18T03:56:53;39.08;;;15.30;;
17631;SDS011;8934;51.194;17.150;2022-12-18T03:59:48;36.33;;;14.02;;
17631;SDS011;8934;51.194;17.150;2022-12-18T04:02:52;34.20;;;14.82;;
17631;SDS011;8934;51.194;17.150;2022-12-18T04:05:50;39.78;;;14.80;;
17631;SDS011;8934;51.194;17.150;2022-12-18T04:08:40;40.70;;;14.25;;
17631;SDS011;8934;51.194;17.150;2022-12-18T04:11:32;36.15;;;14.50;;
17631;SDS011;8934;51.194;17.150;2022-12-18T04:14:21;44.72;;;14.55;;
17631;SDS011;8934;51.194;17.150;2022-12-18T04:17:13;42.80;;;15.38;;
17631;SDS011;8934;51.194;17.150;2022-12-18T04:20:00;37.25;;;12.90;;
17631;SDS011;8934;51.194;17.150;2022-12-18T04:22:49;32.70;;;13.80;;
17631;SDS011;8934;51.194;17.150;2022-12-18T04:25:38;29.90;;;11.93;;
17631;SDS011;8934;51.194;17.150;2022-12-18T04:28:30;32.15;;;13.30;;
17631;SDS011;8934;51.194;17.150;2022-12-18T04:31:18;31.27;;;14.27;;
17631;SDS011;8934;51.194;17.150;2022-12-18T04:34:06;38.60;;;13.65;;
17631;SDS011;8934;51.194;17.150;2022-12-18T04:37:00;34.08;;;13.77;;
17631;SDS011;8934;51.194;17.150;2022-12-18T04:39:48;26.80;;;12.85;;
17631;SDS011;8934;51.194;17.150;2022-12-18T04:42:45;39.13;;;13.98;;
17631;SDS011;8934;51.194;17.150;2022-12-18T04:45:33;38.90;;;14.18;;
17631;SDS011;8934;51.194;17.150;2022-12-18T04:48:21;36.30;;;14.20;;
17631;SDS011;8934;51.194;17.150;2022-12-18T04:51:09;34.60;;;14.02;;
17631;SDS011;8934;51.194;17.150;2022-12-18T04:53:57;30.73;;;13.18;;
17631;SDS011;8934;51.194;17.150;2022-12-18T04:56:44;34.08;;;14.25;;
17631;SDS011;8934;51.194;17.150;2022-12-18T04:59:32;28.40;;;11.02;;
17631;SDS011;8934;51.194;17.150;2022-12-18T05:02:21;33.30;;;13.07;;
17631;SDS011;8934;51.194;17.150;2022-12-18T05:05:09;32.55;;;13.35;;
17631;SDS011;8934;51.194;17.150;2022-12-18T05:07:56;43.63;;;13.55;;
17631;SDS011;8934;51.194;17.150;2022-12-18T05:10:44;33.60;;;15.07;;
17631;SDS011;8934;51.194;17.150;2022-12-18T05:13:32;36.33;;;15.30;;
17631;SDS011;8934;51.194;17.150;2022-12-18T05:16:21;34.22;;;14.55;;
17631;SDS011;8934;51.194;17.150;2022-12-18T05:19:09;43.67;;;16.40;;
17631;SDS011;8934;51.194;17.150;2022-12-18T05:21:58;36.65;;;15.52;;
17631;SDS011;8934;51.194;17.150;2022-12-18T05:24:45;38.42;;;16.25;;
17631;SDS011;8934;51.194;17.150;2022-12-18T05:27:33;37.22;;;15.43;;
17631;SDS011;8934;51.194;17.150;2022-12-18T05:30:20;40.28;;;13.95;;
17631;SDS011;8934;51.194;17.150;2022-12-18T05:33:07;35.70;;;14.25;;
17631;SDS011;8934;51.194;17.150;2022-12-18T05:35:57;41.25;;;13.60;;
17631;SDS011;8934;51.194;17.150;2022-12-18T05:38:48;30.92;;;13.18;;
17631;SDS011;8934;51.194;17.150;2022-12-18T05:41:36;39.15;;;14.73;;
17631;SDS011;8934;51.194;17.150;2022-12-18T05:44:23;43.08;;;15.00;;
17631;SDS011;8934;51.194;17.150;2022-12-18T05:47:11;31.15;;;14.20;;
17631;SDS011;8934;51.194;17.150;2022-12-18T05:49:58;33.00;;;14.90;;
17631;SDS011;8934;51.194;17.150;2022-12-18T05:52:47;35.78;;;13.85;;
17631;SDS011;8934;51.194;17.150;2022-12-18T05:55:35;40.42;;;14.35;;
17631;SDS011;8934;51.194;17.150;2022-12-18T05:58:23;40.40;;;13.27;;
17631;SDS011;8934;51.194;17.150;2022-12-18T06:01:11;33.17;;;13.82;;
17631;SDS011;8934;51.194;17.150;2022-12-18T06:04:00;31.92;;;13.48;;
17631;SDS011;8934;51.194;17.150;2022-12-18T06:06:48;47.88;;;17.17;;
17631;SDS011;8934;51.194;17.150;2022-12-18T06:09:37;35.40;;;14.30;;
17631;SDS011;8934;51.194;17.150;2022-12-18T06:12:25;36.42;;;14.82;;
17631;SDS011;8934;51.194;17.150;2022-12-18T06:15:12;37.88;;;14.80;;
17631;SDS011;8934;51.194;17.150;2022-12-18T06:18:01;33.17;;;12.88;;
17631;SDS011;8934;51.194;17.150;2022-12-18T06:20:54;44.97;;;15.63;;
17631;SDS011;8934;51.194;17.150;2022-12-18T06:23:42;33.88;;;14.23;;
17631;SDS011;8934;51.194;17.150;2022-12-18T06:26:31;38.53;;;14.75;;
17631;SDS011;8934;51.194;17.150;2022-12-18T06:29:19;37.47;;;16.23;;
17631;SDS011;8934;51.194;17.150;2022-12-18T06:32:07;38.05;;;13.70;;
17631;SDS011;8934;51.194;17.150;2022-12-18T06:34:54;32.67;;;14.10;;
17631;SDS011;8934;51.194;17.150;2022-12-18T06:37:42;35.63;;;13.82;;
17631;SDS011;8934;51.194;17.150;2022-12-18T06:40:29;35.63;;;15.07;;
17631;SDS011;8934;51.194;17.150;2022-12-18T06:43:19;31.65;;;12.93;;
17631;SDS011;8934;51.194;17.150;2022-12-18T06:46:07;32.58;;;13.43;;
17631;SDS011;8934;51.194;17.150;2022-12-18T06:48:56;32.47;;;15.52;;
17631;SDS011;8934;51.194;17.150;2022-12-18T06:51:43;30.30;;;14.05;;
17631;SDS011;8934;51.194;17.150;2022-12-18T06:54:32;33.25;;;13.38;;
17631;SDS011;8934;51.194;17.150;2022-12-18T06:57:19;35.28;;;14.48;;
17631;SDS011;8934;51.194;17.150;2022-12-18T07:00:09;35.17;;;14.18;;
17631;SDS011;8934;51.194;17.150;2022-12-18T07:02:57;35.00;;;13.88;;
17631;SDS011;8934;51.194;17.150;2022-12-18T07:05:44;37.28;;;15.07;;
17631;SDS011;8934;51.194;17.150;2022-12-18T07:08:32;40.22;;;15.93;;
17631;SDS011;8934;51.194;17.150;2022-12-18T07:11:22;39.13;;;15.18;;
17631;SDS011;8934;51.194;17.150;2022-12-18T07:14:10;39.92;;;15.63;;
17631;SDS011;8934;51.194;17.150;2022-12-18T07:16:58;42.45;;;15.52;;
17631;SDS011;8934;51.194;17.150;2022-12-18T07:19:46;33.35;;;14.48;;
17631;SDS011;8934;51.194;17.150;2022-12-18T07:22:33;40.25;;;16.98;;
17631;SDS011;8934;51.194;17.150;2022-12-18T07:25:21;43.47;;;17.15;;
17631;SDS011;8934;51.194;17.150;2022-12-18T07:28:09;42.67;;;17.25;;
17631;SDS011;8934;51.194;17.150;2022-12-18T07:31:02;44.03;;;18.80;;
17631;SDS011;8934;51.194;17.150;2022-12-18T07:33:53;44.63;;;18.08;;
17631;SDS011;8934;51.194;17.150;2022-12-18T07:36:40;53.80;;;22.35;;
17631;SDS011;8934;51.194;17.150;2022-12-18T07:39:28;40.92;;;19.13;;
17631;SDS011;8934;51.194;17.150;2022-12-18T07:42:16;40.63;;;16.80;;
17631;SDS011;8934;51.194;17.150;2022-12-18T07:45:19;47.30;;;18.90;;
17631;SDS011;8934;51.194;17.150;2022-12-18T07:48:06;50.53;;;19.52;;
17631;SDS011;8934;51.194;17.150;2022-12-18T07:50:58;47.97;;;17.70;;
17631;SDS011;8934;51.194;17.150;2022-12-18T07:53:46;50.60;;;18.17;;
17631;SDS011;8934;51.194;17.150;2022-12-18T07:56:37;58.25;;;21.83;;
17631;SDS011;8934;51.194;17.150;2022-12-18T07:59:24;53.92;;;20.48;;
17631;SDS011;8934;51.194;17.150;2022-12-18T08:02:12;49.47;;;21.42;;
17631;SDS011;8934;51.194;17.150;2022-12-18T08:05:00;43.85;;;19.33;;
17631;SDS011;8934;51.194;17.150;2022-12-18T08:07:49;48.15;;;19.38;;
17631;SDS011;8934;51.194;17.150;2022-12-18T08:10:37;56.92;;;21.13;;
17631;SDS011;8934;51.194;17.150;2022-12-18T08:13:25;46.85;;;19.60;;
17631;SDS011;8934;51.194;17.150;2022-12-18T08:16:13;47.88;;;20.23;;
17631;SDS011;8934;51.194;17.150;2022-12-18T08:19:01;52.17;;;19.67;;
17631;SDS011;8934;51.194;17.150;2022-12-18T08:21:49;51.45;;;20.55;;
17631;SDS011;8934;51.194;17.150;2022-12-18T08:24:38;62.47;;;22.77;;
17631;SDS011;8934;51.194;17.150;2022-12-18T08:27:25;55.65;;;21.85;;
17631;SDS011;8934;51.194;17.150;2022-12-18T08:30:14;50.55;;;21.58;;
17631;SDS011;8934;51.194;17.150;2022-12-18T08:33:02;57.65;;;23.00;;
17631;SDS011;8934;51.194;17.150;2022-12-18T08:35:50;53.40;;;20.63;;
17631;SDS011;8934;51.194;17.150;2022-12-18T08:38:37;51.88;;;21.80;;
17631;SDS011;8934;51.194;17.150;2022-12-18T08:41:27;51.80;;;20.48;;
17631;SDS011;8934;51.194;17.150;2022-12-18T08:44:15;46.95;;;20.40;;
17631;SDS011;8934;51.194;17.150;2022-12-18T08:47:20;54.33;;;21.33;;
17631;SDS011;8934;51.194;17.150;2022-12-18T08:50:09;57.35;;;23.75;;
17631;SDS011;8934;51.194;17.150;2022-12-18T08:52:57;59.30;;;23.65;;
17631;SDS011;8934;51.194;17.150;2022-12-18T08:55:44;54.63;;;21.80;;
17631;SDS011;8934;51.194;17.150;2022-12-18T08:58:36;50.03;;;21.73;;
17631;SDS011;8934;51.194;17.150;2022-12-18T09:01:24;55.65;;;21.88;;
17631;SDS011;8934;51.194;17.150;2022-12-18T09:04:12;49.92;;;21.17;;
17631;SDS011;8934;51.194;17.150;2022-12-18T09:06:59;47.50;;;19.23;;
17631;SDS011;8934;51.194;17.150;2022-12-18T09:09:47;44.08;;;19.05;;
17631;SDS011;8934;51.194;17.150;2022-12-18T09:12:34;41.97;;;17.35;;
17631;SDS011;8934;51.194;17.150;2022-12-18T09:15:23;42.13;;;19.17;;
17631;SDS011;8934;51.194;17.150;2022-12-18T09:18:11;42.05;;;18.60;;
17631;SDS011;8934;51.194;17.150;2022-12-18T09:21:00;35.60;;;15.75;;
17631;SDS011;8934;51.194;17.150;2022-12-18T09:23:55;42.17;;;18.10;;
17631;SDS011;8934;51.194;17.150;2022-12-18T09:26:43;43.50;;;19.50;;
17631;SDS011;8934;51.194;17.150;2022-12-18T09:29:32;50.70;;;19.58;;
17631;SDS011;8934;51.194;17.150;2022-12-18T09:32:21;52.75;;;20.23;;
17631;SDS011;8934;51.194;17.150;2022-12-18T09:35:09;44.70;;;18.77;;
17631;SDS011;8934;51.194;17.150;2022-12-18T09:37:56;36.95;;;17.77;;
17631;SDS011;8934;51.194;17.150;2022-12-18T09:40:46;45.25;;;17.02;;
17631;SDS011;8934;51.194;17.150;2022-12-18T09:43:35;38.10;;;16.42;;
17631;SDS011;8934;51.194;17.150;2022-12-18T09:46:28;43.08;;;16.92;;
17631;SDS011;8934;51.194;17.150;2022-12-18T09:49:23;42.33;;;17.35;;
17631;SDS011;8934;51.194;17.150;2022-12-18T09:52:16;37.67;;;15.93;;
17631;SDS011;8934;51.194;17.150;2022-12-18T09:55:09;39.70;;;17.13;;
17631;SDS011;8934;51.194;17.150;2022-12-18T09:58:05;36.42;;;16.02;;
17631;SDS011;8934;51.194;17.150;2022-12-18T10:01:01;38.13;;;16.98;;
17631;SDS011;8934;51.194;17.150;2022-12-18T10:03:49;39.22;;;16.48;;
17631;SDS011;8934;51.194;17.150;2022-12-18T10:06:41;43.60;;;16.58;;
17631;SDS011;8934;51.194;17.150;2022-12-18T10:09:33;35.70;;;16.15;;
17631;SDS011;8934;51.194;17.150;2022-12-18T10:12:29;41.05;;;17.77;;
17631;SDS011;8934;51.194;17.150;2022-12-18T10:15:23;35.50;;;16.13;;
17631;SDS011;8934;51.194;17.150;2022-12-18T10:18:18;39.05;;;16.13;;
17631;SDS011;8934;51.194;17.150;2022-12-18T10:21:17;39.50;;;15.75;;
17631;SDS011;8934;51.194;17.150;2022-12-18T10:24:12;37.67;;;16.02;;
17631;SDS011;8934;51.194;17.150;2022-12-18T10:27:09;37.58;;;14.80;;
17631;SDS011;8934;51.194;17.150;2022-12-18T10:30:04;35.20;;;15.75;;
17631;SDS011;8934;51.194;17.150;2022-12-18T10:33:00;38.67;;;15.90;;
17631;SDS011;8934;51.194;17.150;2022-12-18T10:35:49;40.10;;;16.17;;
17631;SDS011;8934;51.194;17.150;2022-12-18T10:38:38;38.22;;;17.20;;
17631;SDS011;8934;51.194;17.150;2022-12-18T10:41:28;34.33;;;15.80;;
17631;SDS011;8934;51.194;17.150;2022-12-18T10:44:17;37.83;;;16.52;;
17631;SDS011;8934;51.194;17.150;2022-12-18T10:47:06;42.78;;;17.52;;
17631;SDS011;8934;51.194;17.150;2022-12-18T10:49:59;34.42;;;16.45;;
17631;SDS011;8934;51.194;17.150;2022-12-18T10:52:53;39.38;;;15.63;;
17631;SDS011;8934;51.194;17.150;2022-12-18T10:55:43;33.92;;;17.30;;
17631;SDS011;8934;51.194;17.150;2022-12-18T10:58:34;44.53;;;17.13;;
17631;SDS011;8934;51.194;17.150;2022-12-18T11:01:23;33.70;;;15.90;;
17631;SDS011;8934;51.194;17.150;2022-12-18T11:04:13;41.78;;;17.73;;
17631;SDS011;8934;51.194;17.150;2022-12-18T11:07:05;40.15;;;16.58;;
17631;SDS011;8934;51.194;17.150;2022-12-18T11:09:59;36.90;;;15.50;;
17631;SDS011;8934;51.194;17.150;2022-12-18T11:12:50;39.10;;;17.50;;
17631;SDS011;8934;51.194;17.150;2022-12-18T11:15:40;39.60;;;16.85;;
17631;SDS011;8934;51.194;17.150;2022-12-18T11:18:29;54.97;;;21.88;;
17631;SDS011;8934;51.194;17.150;2022-12-18T11:21:19;48.13;;;20.55;;
17631;SDS011;8934;51.194;17.150;2022-12-18T11:24:07;38.20;;;16.65;;
17631;SDS011;8934;51.194;17.150;2022-12-18T11:27:06;40.33;;;17.35;;
17631;SDS011;8934;51.194;17.150;2022-12-18T11:30:08;38.28;;;15.75;;
17631;SDS011;8934;51.194;17.150;2022-12-18T11:33:04;39.20;;;15.68;;
17631;SDS011;8934;51.194;17.150;2022-12-18T11:35:55;36.47;;;17.02;;
17631;SDS011;8934;51.194;17.150;2022-12-18T11:38:48;41.90;;;18.42;;
17631;SDS011;8934;51.194;17.150;2022-12-18T11:41:39;40.83;;;17.55;;
17631;SDS011;8934;51.194;17.150;2022-12-18T11:44:50;37.70;;;17.75;;
17631;SDS011;8934;51.194;17.150;2022-12-18T11:47:42;49.03;;;19.00;;
17631;SDS011;8934;51.194;17.150;2022-12-18T11:50:41;41.40;;;16.90;;
17631;SDS011;8934;51.194;17.150;2022-12-18T11:53:33;44.30;;;16.83;;
17631;SDS011;8934;51.194;17.150;2022-12-18T11:56:26;51.20;;;19.92;;
17631;SDS011;8934;51.194;17.150;2022-12-18T11:59:21;45.70;;;19.73;;
17631;SDS011;8934;51.194;17.150;2022-12-18T12:02:22;40.25;;;18.23;;
17631;SDS011;8934;51.194;17.150;2022-12-18T12:05:25;46.83;;;19.90;;
17631;SDS011;8934;51.194;17.150;2022-12-18T12:08:31;44.70;;;19.83;;
17631;SDS011;8934;51.194;17.150;2022-12-18T12:11:28;45.85;;;19.58;;
17631;SDS011;8934;51.194;17.150;2022-12-18T12:14:27;46.10;;;18.52;;
17631;SDS011;8934;51.194;17.150;2022-12-18T12:17:27;52.45;;;20.75;;
17631;SDS011;8934;51.194;17.150;2022-12-18T12:20:25;51.10;;;20.88;;
17631;SDS011;8934;51.194;17.150;2022-12-18T12:23:26;50.80;;;19.50;;
17631;SDS011;8934;51.194;17.150;2022-12-18T12:26:25;47.83;;;18.55;;
17631;SDS011;8934;51.194;17.150;2022-12-18T12:29:23;43.38;;;18.30;;
17631;SDS011;8934;51.194;17.150;2022-12-18T12:32:25;49.95;;;18.75;;
17631;SDS011;8934;51.194;17.150;2022-12-18T12:35:26;54.67;;;20.17;;
17631;SDS011;8934;51.194;17.150;2022-12-18T12:38:22;53.78;;;20.65;;
17631;SDS011;8934;51.194;17.150;2022-12-18T12:41:17;53.78;;;22.92;;
17631;SDS011;8934;51.194;17.150;2022-12-18T12:44:25;54.90;;;20.88;;
17631;SDS011;8934;51.194;17.150;2022-12-18T12:47:18;47.05;;;19.30;;
17631;SDS011;8934;51.194;17.150;2022-12-18T12:50:12;53.50;;;21.27;;
17631;SDS011;8934;51.194;17.150;2022-12-18T12:53:05;50.63;;;21.17;;
17631;SDS011;8934;51.194;17.150;2022-12-18T12:55:57;52.65;;;23.67;;
17631;SDS011;8934;51.194;17.150;2022-12-18T12:58:49;54.08;;;22.30;;
17631;SDS011;8934;51.194;17.150;2022-12-18T13:01:48;57.67;;;21.27;;
17631;SDS011;8934;51.194;17.150;2022-12-18T13:04:44;51.95;;;21.73;;
17631;SDS011;8934;51.194;17.150;2022-12-18T13:07:35;53.83;;;20.75;;
17631;SDS011;8934;51.194;17.150;2022-12-18T13:10:34;58.78;;;23.90;;
17631;SDS011;8934;51.194;17.150;2022-12-18T13:13:23;59.60;;;23.45;;
17631;SDS011;8934;51.194;17.150;2022-12-18T13:16:12;63.47;;;26.85;;
17631;SDS011;8934;51.194;17.150;2022-12-18T13:19:18;55.30;;;22.10;;
17631;SDS011;8934;51.194;17.150;2022-12-18T13:22:20;62.72;;;23.10;;
17631;SDS011;8934;51.194;17.150;2022-12-18T13:25:32;59.88;;;24.00;;
17631;SDS011;8934;51.194;17.150;2022-12-18T13:28:22;59.78;;;23.15;;
17631;SDS011;8934;51.194;17.150;2022-12-18T13:38:32;45.60;;;18.90;;
17631;SDS011;8934;51.194;17.150;2022-12-18T13:41:22;50.10;;;21.50;;
17631;SDS011;8934;51.194;17.150;2022-12-18T13:44:11;40.05;;;17.20;;
17631;SDS011;8934;51.194;17.150;2022-12-18T13:47:04;48.78;;;19.73;;
17631;SDS011;8934;51.194;17.150;2022-12-18T13:49:52;46.60;;;19.58;;
17631;SDS011;8934;51.194;17.150;2022-12-18T13:52:43;44.67;;;17.63;;
17631;SDS011;8934;51.194;17.150;2022-12-18T13:55:30;45.13;;;17.65;;
17631;SDS011;8934;51.194;17.150;2022-12-18T13:58:19;50.17;;;18.83;;
17631;SDS011;8934;51.194;17.150;2022-12-18T14:01:15;42.35;;;19.40;;
17631;SDS011;8934;51.194;17.150;2022-12-18T14:04:09;50.53;;;20.48;;
17631;SDS011;8934;51.194;17.150;2022-12-18T14:07:00;51.85;;;19.80;;
17631;SDS011;8934;51.194;17.150;2022-12-18T14:09:53;50.60;;;22.05;;
17631;SDS011;8934;51.194;17.150;2022-12-18T14:13:03;52.45;;;20.52;;
17631;SDS011;8934;51.194;17.150;2022-12-18T14:15:53;62.00;;;24.98;;
17631;SDS011;8934;51.194;17.150;2022-12-18T14:18:45;45.10;;;19.10;;
17631;SDS011;8934;51.194;17.150;2022-12-18T14:21:35;56.72;;;20.67;;
17631;SDS011;8934;51.194;17.150;2022-12-18T14:24:25;49.50;;;20.42;;
17631;SDS011;8934;51.194;17.150;2022-12-18T14:27:22;51.85;;;21.60;;
17631;SDS011;8934;51.194;17.150;2022-12-18T14:30:27;64.05;;;23.65;;
17631;SDS011;8934;51.194;17.150;2022-12-18T14:33:17;62.78;;;23.60;;
17631;SDS011;8934;51.194;17.150;2022-12-18T14:36:13;60.30;;;22.67;;
17631;SDS011;8934;51.194;17.150;2022-12-18T14:39:03;55.90;;;21.30;;
17631;SDS011;8934;51.194;17.150;2022-12-18T14:41:50;67.65;;;23.73;;
17631;SDS011;8934;51.194;17.150;2022-12-18T14:44:39;61.03;;;23.92;;
17631;SDS011;8934;51.194;17.150;2022-12-18T14:47:47;52.85;;;20.42;;
17631;SDS011;8934;51.194;17.150;2022-12-18T14:50:34;68.28;;;24.77;;
17631;SDS011;8934;51.194;17.150;2022-12-18T14:53:23;63.78;;;24.00;;
17631;SDS011;8934;51.194;17.150;2022-12-18T14:56:19;64.07;;;23.15;;
17631;SDS011;8934;51.194;17.150;2022-12-18T14:59:12;74.00;;;29.02;;
17631;SDS011;8934;51.194;17.150;2022-12-18T15:02:13;76.07;;;30.20;;
17631;SDS011;8934;51.194;17.150;2022-12-18T15:05:16;68.20;;;26.65;;
17631;SDS011;8934;51.194;17.150;2022-12-18T15:14:34;64.82;;;23.33;;
17631;SDS011;8934;51.194;17.150;2022-12-18T15:17:26;68.10;;;24.52;;
17631;SDS011;8934;51.194;17.150;2022-12-18T15:20:14;64.82;;;26.50;;
17631;SDS011;8934;51.194;17.150;2022-12-18T15:23:02;75.40;;;27.95;;
17631;SDS011;8934;51.194;17.150;2022-12-18T15:25:54;63.03;;;26.08;;
17631;SDS011;8934;51.194;17.150;2022-12-18T15:28:44;63.42;;;24.67;;
17631;SDS011;8934;51.194;17.150;2022-12-18T15:31:33;68.30;;;26.33;;
17631;SDS011;8934;51.194;17.150;2022-12-18T15:34:22;74.05;;;25.40;;
17631;SDS011;8934;51.194;17.150;2022-12-18T15:37:11;71.57;;;26.80;;
17631;SDS011;8934;51.194;17.150;2022-12-18T15:39:58;66.65;;;24.98;;
17631;SDS011;8934;51.194;17.150;2022-12-18T15:42:47;69.50;;;26.48;;
17631;SDS011;8934;51.194;17.150;2022-12-18T15:45:55;59.45;;;22.40;;
17631;SDS011;8934;51.194;17.150;2022-12-18T15:48:43;62.50;;;23.70;;
17631;SDS011;8934;51.194;17.150;2022-12-18T15:51:34;64.03;;;24.38;;
17631;SDS011;8934;51.194;17.150;2022-12-18T15:54:23;64.30;;;27.95;;
17631;SDS011;8934;51.194;17.150;2022-12-18T15:57:24;70.15;;;27.10;;
17631;SDS011;8934;51.194;17.150;2022-12-18T16:00:12;69.75;;;26.30;;
17631;SDS011;8934;51.194;17.150;2022-12-18T16:03:01;74.32;;;26.85;;
17631;SDS011;8934;51.194;17.150;2022-12-18T16:05:49;77.68;;;28.70;;
17631;SDS011;8934;51.194;17.150;2022-12-18T16:08:38;81.68;;;27.55;;
17631;SDS011;8934;51.194;17.150;2022-12-18T16:11:27;71.95;;;27.02;;
17631;SDS011;8934;51.194;17.150;2022-12-18T16:14:30;67.38;;;26.58;;
17631;SDS011;8934;51.194;17.150;2022-12-18T16:17:18;67.40;;;22.75;;
17631;SDS011;8934;51.194;17.150;2022-12-18T16:20:06;58.22;;;22.25;;
17631;SDS011;8934;51.194;17.150;2022-12-18T16:23:00;80.88;;;29.35;;
17631;SDS011;8934;51.194;17.150;2022-12-18T16:25:49;65.35;;;26.42;;
17631;SDS011;8934;51.194;17.150;2022-12-18T16:28:37;74.65;;;28.27;;
17631;SDS011;8934;51.194;17.150;2022-12-18T16:31:33;67.32;;;27.77;;
17631;SDS011;8934;51.194;17.150;2022-12-18T16:34:21;72.72;;;28.25;;
17631;SDS011;8934;51.194;17.150;2022-12-18T16:37:14;63.17;;;23.02;;
17631;SDS011;8934;51.194;17.150;2022-12-18T16:40:03;70.47;;;25.52;;
17631;SDS011;8934;51.194;17.150;2022-12-18T16:42:53;63.20;;;27.15;;
17631;SDS011;8934;51.194;17.150;2022-12-18T16:45:40;84.43;;;29.55;;
17631;SDS011;8934;51.194;17.150;2022-12-18T16:48:27;77.70;;;29.67;;
17631;SDS011;8934;51.194;17.150;2022-12-18T16:51:16;65.55;;;24.15;;
17631;SDS011;8934;51.194;17.150;2022-12-18T16:54:04;83.53;;;25.48;;
17631;SDS011;8934;51.194;17.150;2022-12-18T16:56:57;83.35;;;29.58;;
17631;SDS011;8934;51.194;17.150;2022-12-18T16:59:49;74.50;;;27.58;;